SBRJSBCP

Guest
Details From SBRJ - Santos-Dumont
To SBCP - Bartolomeu Lisandro
Flight Number -
Tags generated
Created
Modified
Stats Distance 126 nm / 234 km
Max Altitude 7,300 ft / 2,225 m
Waypoints 3
Social Downloads 0
Likes 0
Share VATSIM

Download

Looking for another format? Having issues loading an existing format? Contact us
Advertisement - Login to hide

Notes

Basic altitude profile: - Ascent Rate: 2500ft/min - Ascent Speed: 250kts - Cruise Altitude: 35000ft - Cruise Speed: 420kts - Descent Rate: 1500ft/min - Descent Speed: 250kts Options: - Use NATs: yes - Use PACOTS: yes - Use low airways: yes - Use high airways: yes

Route

SBRJ PCX SBCP

ID Type Via Altitude Latitude Longitude Leg Dist Tot Dist Heading (true) Name
O SBRJ APT - 0 ft / 0 m -22.91046˚ -43.16313˚ - 0 nm - Santos-Dumont
PCX VOR - 7,300 ft / 2,225 m -22.71533˚ -42.85750˚ 20 nm 20 nm 55° / 55° PORTO VOR-DME
O SBCP APT - 0 ft / 0 m -21.69833˚ -41.30167˚ 105 nm 126 nm 55° / 54° Bartolomeu Lisandro

Altitude Profile

Advertisement - Login to hide

SBRJ

Details ICAO SBRJ (SDU)
Name Santos-Dumont
Region Brazil
Timezone Unknown (UTC+0.0)
Stats Elevation 11 ft / 3 m (AMSL)
Location -22.910460° -43.163133°
Runways 2
Magnetic Variation 22.782° W

METAR

SBRJ 141300Z 14007KT 9999 FEW020 30/20 Q1017

Decode

TAF

TAF SBRJ 140800Z 1412/1424 14007KT 9999 SCT030 TX30/1417Z TN25/1423Z TEMPO 1414/1417 15015KT BECMG 1422/1424 CAVOK RMK PGX

Decode

Departure Runways

ID Width Length Bearing (true) Bearing (mag) Surface Threshold Offset Overrun Length
02L 98 ft / 30 m 4,154 ft / 1,266 m 358.02° 20.80° Asphalt 0 ft / 0 m 80 ft / 24 m
02R 138 ft / 42 m 4,361 ft / 1,329 m 358.01° 20.79° Asphalt 0 ft / 0 m 80 ft / 24 m
20L 138 ft / 42 m 4,361 ft / 1,329 m 178.01° 200.79° Asphalt 0 ft / 0 m 80 ft / 24 m
20R 98 ft / 30 m 4,154 ft / 1,266 m 178.02° 200.80° Asphalt 0 ft / 0 m 95 ft / 29 m

SBCP

Details ICAO SBCP (CAW)
Name Bartolomeu Lisandro
Region Brazil
Timezone America/Sao_Paulo (UTC-2.0)
Stats Elevation 57 ft / 17 m (AMSL)
Location -21.698334° -41.301668°
Runways 1
Magnetic Variation 23.475° W

METAR

SBCP 141300Z 10006KT 9999 BKN020 26/18 Q1018

Decode

TAF

TAF SBCP 140800Z 1412/1424 12015KT 9999 FEW025 TX28/1417Z TN24/1422Z BECMG 1422/1424 08008KT RMK PGX

Decode

Destination Runways

ID Width Length Bearing (true) Bearing (mag) Surface Threshold Offset Overrun Length
07 148 ft / 45 m 5,093 ft / 1,552 m 46.60° 70.08° Asphalt 0 ft / 0 m 0 ft / 0 m
25 148 ft / 45 m 5,093 ft / 1,552 m 226.60° 250.08° Asphalt 0 ft / 0 m 0 ft / 0 m